sensor_id;sensor_type;location;lat;lon;timestamp;temperature;humidity
39219;DHT22;24934;52.752;6.964;2023-03-14T00:00:34;10.20;99.90
39219;DHT22;24934;52.752;6.964;2023-03-14T00:02:59;10.20;99.90
39219;DHT22;24934;52.752;6.964;2023-03-14T00:05:25;10.30;99.90
39219;DHT22;24934;52.752;6.964;2023-03-14T00:07:51;10.30;99.90
39219;DHT22;24934;52.752;6.964;2023-03-14T00:10:17;10.30;99.90
39219;DHT22;24934;52.752;6.964;2023-03-14T00:12:43;10.30;99.90
39219;DHT22;24934;52.752;6.964;2023-03-14T00:15:10;10.30;99.90
39219;DHT22;24934;52.752;6.964;2023-03-14T00:17:36;10.30;99.90
39219;DHT22;24934;52.752;6.964;2023-03-14T00:20:03;10.30;99.90
39219;DHT22;24934;52.752;6.964;2023-03-14T00:22:34;10.30;99.90
39219;DHT22;24934;52.752;6.964;2023-03-14T00:25:00;10.30;99.90
39219;DHT22;24934;52.752;6.964;2023-03-14T00:27:25;10.30;99.90
39219;DHT22;24934;52.752;6.964;2023-03-14T00:29:51;10.40;99.90
39219;DHT22;24934;52.752;6.964;2023-03-14T00:32:17;10.50;99.90
39219;DHT22;24934;52.752;6.964;2023-03-14T00:34:42;10.50;99.90
39219;DHT22;24934;52.752;6.964;2023-03-14T00:37:08;10.70;99.90
39219;DHT22;24934;52.752;6.964;2023-03-14T00:39:33;10.70;99.90
39219;DHT22;24934;52.752;6.964;2023-03-14T00:41:59;10.60;99.90
39219;DHT22;24934;52.752;6.964;2023-03-14T00:44:24;10.50;99.90
39219;DHT22;24934;52.752;6.964;2023-03-14T00:46:50;10.50;99.90
39219;DHT22;24934;52.752;6.964;2023-03-14T00:49:16;10.50;99.90
39219;DHT22;24934;52.752;6.964;2023-03-14T00:51:41;10.50;99.90
39219;DHT22;24934;52.752;6.964;2023-03-14T00:54:07;10.50;99.90
39219;DHT22;24934;52.752;6.964;2023-03-14T00:56:33;10.40;99.90
39219;DHT22;24934;52.752;6.964;2023-03-14T00:58:58;10.20;99.90
39219;DHT22;24934;52.752;6.964;2023-03-14T01:01:24;10.10;99.90
39219;DHT22;24934;52.752;6.964;2023-03-14T01:03:54;10.00;99.90
39219;DHT22;24934;52.752;6.964;2023-03-14T01:06:23;9.80;99.90
39219;DHT22;24934;52.752;6.964;2023-03-14T01:08:49;9.70;99.90
39219;DHT22;24934;52.752;6.964;2023-03-14T01:11:19;9.70;99.90
39219;DHT22;24934;52.752;6.964;2023-03-14T01:13:45;9.60;99.90
39219;DHT22;24934;52.752;6.964;2023-03-14T01:16:12;9.70;99.90
39219;DHT22;24934;52.752;6.964;2023-03-14T01:18:39;9.70;99.90
39219;DHT22;24934;52.752;6.964;2023-03-14T01:21:19;9.60;99.90
39219;DHT22;24934;52.752;6.964;2023-03-14T01:23:45;9.40;99.90
39219;DHT22;24934;52.752;6.964;2023-03-14T01:26:13;9.30;99.90
39219;DHT22;24934;52.752;6.964;2023-03-14T01:28:39;9.10;99.90
39219;DHT22;24934;52.752;6.964;2023-03-14T01:31:06;8.90;99.90
39219;DHT22;24934;52.752;6.964;2023-03-14T01:33:32;9.00;99.90
39219;DHT22;24934;52.752;6.964;2023-03-14T01:35:58;9.00;99.90
39219;DHT22;24934;52.752;6.964;2023-03-14T01:38:24;8.90;99.90
39219;DHT22;24934;52.752;6.964;2023-03-14T01:40:49;8.90;99.90
39219;DHT22;24934;52.752;6.964;2023-03-14T01:43:16;8.90;99.90
39219;DHT22;24934;52.752;6.964;2023-03-14T01:48:24;8.90;99.90
39219;DHT22;24934;52.752;6.964;2023-03-14T01:50:50;8.90;99.90
39219;DHT22;24934;52.752;6.964;2023-03-14T01:53:16;8.90;99.90
39219;DHT22;24934;52.752;6.964;2023-03-14T01:55:49;8.90;99.90
39219;DHT22;24934;52.752;6.964;2023-03-14T01:58:16;9.00;99.90
39219;DHT22;24934;52.752;6.964;2023-03-14T02:00:42;9.00;99.90
39219;DHT22;24934;52.752;6.964;2023-03-14T02:03:12;9.00;99.90
39219;DHT22;24934;52.752;6.964;2023-03-14T02:05:41;9.10;99.90
39219;DHT22;24934;52.752;6.964;2023-03-14T02:08:10;9.10;99.90
39219;DHT22;24934;52.752;6.964;2023-03-14T02:10:43;9.10;99.90
39219;DHT22;24934;52.752;6.964;2023-03-14T02:13:09;9.10;99.90
39219;DHT22;24934;52.752;6.964;2023-03-14T02:15:35;9.10;99.90
39219;DHT22;24934;52.752;6.964;2023-03-14T02:18:03;9.10;99.90
39219;DHT22;24934;52.752;6.964;2023-03-14T02:23:15;9.00;99.90
39219;DHT22;24934;52.752;6.964;2023-03-14T02:26:00;9.00;99.90
39219;DHT22;24934;52.752;6.964;2023-03-14T02:28:27;9.00;99.90
39219;DHT22;24934;52.752;6.964;2023-03-14T02:30:53;9.00;99.90
39219;DHT22;24934;52.752;6.964;2023-03-14T02:33:20;8.90;99.90
39219;DHT22;24934;52.752;6.964;2023-03-14T02:36:11;9.00;99.90
39219;DHT22;24934;52.752;6.964;2023-03-14T02:38:55;9.00;99.90
39219;DHT22;24934;52.752;6.964;2023-03-14T02:41:21;8.90;99.90
39219;DHT22;24934;52.752;6.964;2023-03-14T02:43:47;8.90;99.90
39219;DHT22;24934;52.752;6.964;2023-03-14T02:46:14;8.90;99.90
39219;DHT22;24934;52.752;6.964;2023-03-14T02:48:53;8.90;99.90
39219;DHT22;24934;52.752;6.964;2023-03-14T02:51:21;8.90;99.90
39219;DHT22;24934;52.752;6.964;2023-03-14T02:53:47;8.90;99.90
39219;DHT22;24934;52.752;6.964;2023-03-14T02:56:13;8.90;99.90
39219;DHT22;24934;52.752;6.964;2023-03-14T02:58:39;8.90;99.90
39219;DHT22;24934;52.752;6.964;2023-03-14T03:01:05;9.00;99.90
39219;DHT22;24934;52.752;6.964;2023-03-14T03:03:30;9.00;99.90
39219;DHT22;24934;52.752;6.964;2023-03-14T03:05:56;9.00;99.90
39219;DHT22;24934;52.752;6.964;2023-03-14T03:08:24;9.00;99.90
39219;DHT22;24934;52.752;6.964;2023-03-14T03:10:52;9.00;99.90
39219;DHT22;24934;52.752;6.964;2023-03-14T03:13:18;9.00;99.90
39219;DHT22;24934;52.752;6.964;2023-03-14T03:15:44;9.00;99.90
39219;DHT22;24934;52.752;6.964;2023-03-14T03:18:10;8.90;99.90
39219;DHT22;24934;52.752;6.964;2023-03-14T03:20:35;8.90;99.90
39219;DHT22;24934;52.752;6.964;2023-03-14T03:23:01;8.90;99.90
39219;DHT22;24934;52.752;6.964;2023-03-14T03:25:27;8.90;99.90
39219;DHT22;24934;52.752;6.964;2023-03-14T03:27:53;8.90;99.90
39219;DHT22;24934;52.752;6.964;2023-03-14T03:30:20;8.90;99.90
39219;DHT22;24934;52.752;6.964;2023-03-14T03:32:45;8.80;99.90
39219;DHT22;24934;52.752;6.964;2023-03-14T03:35:12;8.80;99.90
39219;DHT22;24934;52.752;6.964;2023-03-14T03:37:38;8.80;99.90
39219;DHT22;24934;52.752;6.964;2023-03-14T03:40:04;8.80;99.90
39219;DHT22;24934;52.752;6.964;2023-03-14T03:42:32;8.70;99.90
39219;DHT22;24934;52.752;6.964;2023-03-14T03:45:00;8.70;99.90
39219;DHT22;24934;52.752;6.964;2023-03-14T03:47:26;8.70;99.90
39219;DHT22;24934;52.752;6.964;2023-03-14T03:49:52;8.60;99.90
39219;DHT22;24934;52.752;6.964;2023-03-14T03:52:17;8.60;99.90
39219;DHT22;24934;52.752;6.964;2023-03-14T03:54:43;8.60;99.90
39219;DHT22;24934;52.752;6.964;2023-03-14T03:57:09;8.60;99.90
39219;DHT22;24934;52.752;6.964;2023-03-14T03:59:34;8.60;99.90
39219;DHT22;24934;52.752;6.964;2023-03-14T04:02:00;8.60;99.90
39219;DHT22;24934;52.752;6.964;2023-03-14T04:04:26;8.60;99.90
39219;DHT22;24934;52.752;6.964;2023-03-14T04:06:51;8.60;99.90
39219;DHT22;24934;52.752;6.964;2023-03-14T04:09:17;8.60;99.90
39219;DHT22;24934;52.752;6.964;2023-03-14T04:11:43;8.60;99.90
39219;DHT22;24934;52.752;6.964;2023-03-14T04:14:09;8.60;99.90
39219;DHT22;24934;52.752;6.964;2023-03-14T04:16:34;8.60;99.90
39219;DHT22;24934;52.752;6.964;2023-03-14T04:19:01;8.60;99.90
39219;DHT22;24934;52.752;6.964;2023-03-14T04:21:27;8.60;99.90
39219;DHT22;24934;52.752;6.964;2023-03-14T04:23:52;8.60;99.90
39219;DHT22;24934;52.752;6.964;2023-03-14T04:26:18;8.60;99.90
39219;DHT22;24934;52.752;6.964;2023-03-14T04:28:43;8.60;99.90
39219;DHT22;24934;52.752;6.964;2023-03-14T04:31:12;8.60;99.90
39219;DHT22;24934;52.752;6.964;2023-03-14T04:33:37;8.60;99.90
39219;DHT22;24934;52.752;6.964;2023-03-14T04:36:05;8.60;99.90
39219;DHT22;24934;52.752;6.964;2023-03-14T04:38:31;8.60;99.90
39219;DHT22;24934;52.752;6.964;2023-03-14T04:40:57;8.60;99.90
39219;DHT22;24934;52.752;6.964;2023-03-14T04:43:23;8.60;99.90
39219;DHT22;24934;52.752;6.964;2023-03-14T04:45:49;8.60;99.90
39219;DHT22;24934;52.752;6.964;2023-03-14T04:48:14;8.60;99.90
39219;DHT22;24934;52.752;6.964;2023-03-14T04:50:40;8.60;99.90
39219;DHT22;24934;52.752;6.964;2023-03-14T04:53:06;8.60;99.90
39219;DHT22;24934;52.752;6.964;2023-03-14T04:55:32;8.60;99.90
39219;DHT22;24934;52.752;6.964;2023-03-14T04:58:00;8.60;99.90
39219;DHT22;24934;52.752;6.964;2023-03-14T05:00:25;8.60;99.90
39219;DHT22;24934;52.752;6.964;2023-03-14T05:02:51;8.50;99.90
39219;DHT22;24934;52.752;6.964;2023-03-14T05:05:16;8.60;99.90
39219;DHT22;24934;52.752;6.964;2023-03-14T05:07:42;8.60;99.90
39219;DHT22;24934;52.752;6.964;2023-03-14T05:10:08;8.60;99.90
39219;DHT22;24934;52.752;6.964;2023-03-14T05:12:35;8.60;99.90
39219;DHT22;24934;52.752;6.964;2023-03-14T05:15:00;8.60;99.90
39219;DHT22;24934;52.752;6.964;2023-03-14T05:17:26;8.60;99.90
39219;DHT22;24934;52.752;6.964;2023-03-14T05:19:51;8.60;99.90
39219;DHT22;24934;52.752;6.964;2023-03-14T05:22:18;8.60;99.90
39219;DHT22;24934;52.752;6.964;2023-03-14T05:24:43;8.50;99.90
39219;DHT22;24934;52.752;6.964;2023-03-14T05:27:09;8.50;99.90
39219;DHT22;24934;52.752;6.964;2023-03-14T05:29:34;8.50;99.90
39219;DHT22;24934;52.752;6.964;2023-03-14T05:32:00;8.50;99.90
39219;DHT22;24934;52.752;6.964;2023-03-14T05:34:26;8.40;99.90
39219;DHT22;24934;52.752;6.964;2023-03-14T05:36:52;8.40;99.90
39219;DHT22;24934;52.752;6.964;2023-03-14T05:39:17;8.40;99.90
39219;DHT22;24934;52.752;6.964;2023-03-14T05:41:43;8.30;99.90
39219;DHT22;24934;52.752;6.964;2023-03-14T05:44:09;8.30;99.90
39219;DHT22;24934;52.752;6.964;2023-03-14T05:46:34;8.30;99.90
39219;DHT22;24934;52.752;6.964;2023-03-14T05:49:00;8.30;99.90
39219;DHT22;24934;52.752;6.964;2023-03-14T05:51:26;8.30;99.90
39219;DHT22;24934;52.752;6.964;2023-03-14T05:53:51;8.30;99.90
39219;DHT22;24934;52.752;6.964;2023-03-14T05:56:17;8.30;99.90
39219;DHT22;24934;52.752;6.964;2023-03-14T05:58:42;8.30;99.90
39219;DHT22;24934;52.752;6.964;2023-03-14T06:01:08;8.40;99.90
39219;DHT22;24934;52.752;6.964;2023-03-14T06:03:34;8.40;99.90
39219;DHT22;24934;52.752;6.964;2023-03-14T06:06:00;8.40;99.90
39219;DHT22;24934;52.752;6.964;2023-03-14T06:08:26;8.50;99.90
39219;DHT22;24934;52.752;6.964;2023-03-14T06:10:52;8.50;99.90
39219;DHT22;24934;52.752;6.964;2023-03-14T06:13:18;8.60;99.90
39219;DHT22;24934;52.752;6.964;2023-03-14T06:15:44;8.60;99.90
39219;DHT22;24934;52.752;6.964;2023-03-14T06:18:10;8.60;99.90
39219;DHT22;24934;52.752;6.964;2023-03-14T06:20:37;8.60;99.90
39219;DHT22;24934;52.752;6.964;2023-03-14T06:23:05;8.60;99.90
39219;DHT22;24934;52.752;6.964;2023-03-14T06:25:32;8.60;99.90
39219;DHT22;24934;52.752;6.964;2023-03-14T06:27:58;8.60;99.90
39219;DHT22;24934;52.752;6.964;2023-03-14T06:30:23;8.60;99.90
39219;DHT22;24934;52.752;6.964;2023-03-14T06:32:49;8.60;99.90
39219;DHT22;24934;52.752;6.964;2023-03-14T06:35:15;8.60;99.90
39219;DHT22;24934;52.752;6.964;2023-03-14T06:37:41;8.60;99.90
39219;DHT22;24934;52.752;6.964;2023-03-14T06:40:07;8.60;99.90
39219;DHT22;24934;52.752;6.964;2023-03-14T06:42:33;8.60;99.90
39219;DHT22;24934;52.752;6.964;2023-03-14T06:44:59;8.60;99.90
39219;DHT22;24934;52.752;6.964;2023-03-14T06:47:25;8.60;99.90
39219;DHT22;24934;52.752;6.964;2023-03-14T06:49:50;8.60;99.90
39219;DHT22;24934;52.752;6.964;2023-03-14T06:52:16;8.60;99.90
39219;DHT22;24934;52.752;6.964;2023-03-14T06:54:42;8.60;99.90
39219;DHT22;24934;52.752;6.964;2023-03-14T06:57:07;8.70;99.90
39219;DHT22;24934;52.752;6.964;2023-03-14T06:59:33;8.60;99.90
39219;DHT22;24934;52.752;6.964;2023-03-14T07:01:59;8.60;99.90
39219;DHT22;24934;52.752;6.964;2023-03-14T07:04:24;8.60;99.90
39219;DHT22;24934;52.752;6.964;2023-03-14T07:06:50;8.60;99.90
39219;DHT22;24934;52.752;6.964;2023-03-14T07:09:15;8.60;99.90
39219;DHT22;24934;52.752;6.964;2023-03-14T07:11:42;8.60;99.90
39219;DHT22;24934;52.752;6.964;2023-03-14T07:14:08;8.60;99.90
39219;DHT22;24934;52.752;6.964;2023-03-14T07:16:34;8.60;99.90
39219;DHT22;24934;52.752;6.964;2023-03-14T07:19:00;8.60;99.90
39219;DHT22;24934;52.752;6.964;2023-03-14T07:21:26;8.70;99.90
39219;DHT22;24934;52.752;6.964;2023-03-14T07:23:52;8.70;99.90
39219;DHT22;24934;52.752;6.964;2023-03-14T07:26:17;8.70;99.90
39219;DHT22;24934;52.752;6.964;2023-03-14T07:28:43;8.80;99.90
39219;DHT22;24934;52.752;6.964;2023-03-14T07:31:09;8.80;99.90
39219;DHT22;24934;52.752;6.964;2023-03-14T07:33:35;8.80;99.90
39219;DHT22;24934;52.752;6.964;2023-03-14T07:36:01;8.80;99.90
39219;DHT22;24934;52.752;6.964;2023-03-14T07:38:27;8.80;99.90
39219;DHT22;24934;52.752;6.964;2023-03-14T07:41:03;8.80;99.90
39219;DHT22;24934;52.752;6.964;2023-03-14T07:43:29;8.80;99.90
39219;DHT22;24934;52.752;6.964;2023-03-14T07:45:55;8.70;99.90
39219;DHT22;24934;52.752;6.964;2023-03-14T07:48:20;8.70;99.90
39219;DHT22;24934;52.752;6.964;2023-03-14T07:50:50;8.70;99.90
39219;DHT22;24934;52.752;6.964;2023-03-14T07:53:16;8.60;99.90
39219;DHT22;24934;52.752;6.964;2023-03-14T07:55:42;8.30;99.90
39219;DHT22;24934;52.752;6.964;2023-03-14T07:58:07;8.20;99.90
39219;DHT22;24934;52.752;6.964;2023-03-14T08:00:33;8.10;99.90
39219;DHT22;24934;52.752;6.964;2023-03-14T08:02:58;8.00;99.90
39219;DHT22;24934;52.752;6.964;2023-03-14T08:05:24;7.90;99.90
39219;DHT22;24934;52.752;6.964;2023-03-14T08:07:50;7.60;99.90
39219;DHT22;24934;52.752;6.964;2023-03-14T08:10:15;7.30;99.90
39219;DHT22;24934;52.752;6.964;2023-03-14T08:12:52;6.90;99.90
39219;DHT22;24934;52.752;6.964;2023-03-14T08:15:18;6.70;99.90
39219;DHT22;24934;52.752;6.964;2023-03-14T08:17:44;6.60;99.90
39219;DHT22;24934;52.752;6.964;2023-03-14T08:20:10;6.40;99.90
39219;DHT22;24934;52.752;6.964;2023-03-14T08:22:37;5.90;99.90
39219;DHT22;24934;52.752;6.964;2023-03-14T08:25:03;5.60;99.90
39219;DHT22;24934;52.752;6.964;2023-03-14T08:27:29;5.40;99.90
39219;DHT22;24934;52.752;6.964;2023-03-14T08:29:55;5.10;99.90
39219;DHT22;24934;52.752;6.964;2023-03-14T08:32:20;5.00;99.90
39219;DHT22;24934;52.752;6.964;2023-03-14T08:34:47;5.00;99.90
39219;DHT22;24934;52.752;6.964;2023-03-14T08:37:13;4.90;99.90
39219;DHT22;24934;52.752;6.964;2023-03-14T08:39:38;4.90;99.90
39219;DHT22;24934;52.752;6.964;2023-03-14T08:42:04;4.80;99.90
39219;DHT22;24934;52.752;6.964;2023-03-14T08:44:30;4.70;99.90
39219;DHT22;24934;52.752;6.964;2023-03-14T08:46:55;4.40;99.90
39219;DHT22;24934;52.752;6.964;2023-03-14T08:49:21;4.40;99.90
39219;DHT22;24934;52.752;6.964;2023-03-14T08:51:47;4.30;99.90
39219;DHT22;24934;52.752;6.964;2023-03-14T08:54:12;4.30;99.90
39219;DHT22;24934;52.752;6.964;2023-03-14T08:56:38;4.30;99.90
39219;DHT22;24934;52.752;6.964;2023-03-14T08:59:05;4.40;99.90
39219;DHT22;24934;52.752;6.964;2023-03-14T09:01:30;4.30;99.90
39219;DHT22;24934;52.752;6.964;2023-03-14T09:03:56;4.10;99.90
39219;DHT22;24934;52.752;6.964;2023-03-14T09:06:22;4.20;99.90
39219;DHT22;24934;52.752;6.964;2023-03-14T09:08:47;4.20;99.90
39219;DHT22;24934;52.752;6.964;2023-03-14T09:11:13;4.30;99.90
39219;DHT22;24934;52.752;6.964;2023-03-14T09:13:39;4.30;99.90
39219;DHT22;24934;52.752;6.964;2023-03-14T09:16:06;4.40;99.90
39219;DHT22;24934;52.752;6.964;2023-03-14T09:18:32;4.40;99.90
39219;DHT22;24934;52.752;6.964;2023-03-14T09:20:57;4.40;99.90
39219;DHT22;24934;52.752;6.964;2023-03-14T09:23:23;4.60;99.90
39219;DHT22;24934;52.752;6.964;2023-03-14T09:25:48;4.60;99.90
39219;DHT22;24934;52.752;6.964;2023-03-14T09:28:14;4.60;99.90
39219;DHT22;24934;52.752;6.964;2023-03-14T09:30:40;4.70;99.90
39219;DHT22;24934;52.752;6.964;2023-03-14T09:33:05;4.70;99.90
39219;DHT22;24934;52.752;6.964;2023-03-14T09:35:33;4.80;99.90
39219;DHT22;24934;52.752;6.964;2023-03-14T09:37:59;4.80;99.90
39219;DHT22;24934;52.752;6.964;2023-03-14T09:40:25;4.90;99.90
39219;DHT22;24934;52.752;6.964;2023-03-14T09:42:56;4.90;99.90
39219;DHT22;24934;52.752;6.964;2023-03-14T09:45:36;5.00;99.90
39219;DHT22;24934;52.752;6.964;2023-03-14T09:48:03;5.10;99.90
39219;DHT22;24934;52.752;6.964;2023-03-14T09:50:59;5.30;99.90
39219;DHT22;24934;52.752;6.964;2023-03-14T09:53:42;5.50;99.90
39219;DHT22;24934;52.752;6.964;2023-03-14T09:56:16;5.60;99.90
39219;DHT22;24934;52.752;6.964;2023-03-14T09:58:44;5.70;99.90
39219;DHT22;24934;52.752;6.964;2023-03-14T10:01:15;5.80;99.90
39219;DHT22;24934;52.752;6.964;2023-03-14T10:03:44;5.90;99.90
39219;DHT22;24934;52.752;6.964;2023-03-14T10:06:14;5.90;99.90
39219;DHT22;24934;52.752;6.964;2023-03-14T10:08:41;6.00;99.90
39219;DHT22;24934;52.752;6.964;2023-03-14T10:11:14;5.90;99.90
39219;DHT22;24934;52.752;6.964;2023-03-14T10:14:04;5.80;99.90
39219;DHT22;24934;52.752;6.964;2023-03-14T10:16:44;5.80;99.90
39219;DHT22;24934;52.752;6.964;2023-03-14T10:19:13;5.70;99.90
39219;DHT22;24934;52.752;6.964;2023-03-14T10:21:41;5.80;99.90
39219;DHT22;24934;52.752;6.964;2023-03-14T10:24:19;6.20;99.90
39219;DHT22;24934;52.752;6.964;2023-03-14T10:27:00;6.50;99.90
39219;DHT22;24934;52.752;6.964;2023-03-14T10:29:33;6.70;99.90
39219;DHT22;24934;52.752;6.964;2023-03-14T10:32:04;6.90;99.90
39219;DHT22;24934;52.752;6.964;2023-03-14T10:34:36;6.80;99.90
39219;DHT22;24934;52.752;6.964;2023-03-14T10:37:23;6.70;99.90
39219;DHT22;24934;52.752;6.964;2023-03-14T10:39:53;6.50;99.90
39219;DHT22;24934;52.752;6.964;2023-03-14T10:42:28;6.40;99.90
39219;DHT22;24934;52.752;6.964;2023-03-14T10:44:57;6.20;99.90
39219;DHT22;24934;52.752;6.964;2023-03-14T10:47:25;6.10;99.90
39219;DHT22;24934;52.752;6.964;2023-03-14T10:49:51;6.00;99.90
39219;DHT22;24934;52.752;6.964;2023-03-14T10:52:24;6.10;99.90
39219;DHT22;24934;52.752;6.964;2023-03-14T10:54:57;6.20;99.90
39219;DHT22;24934;52.752;6.964;2023-03-14T10:57:23;6.30;99.90
39219;DHT22;24934;52.752;6.964;2023-03-14T10:59:49;6.40;99.90
39219;DHT22;24934;52.752;6.964;2023-03-14T11:07:39;7.20;99.90
39219;DHT22;24934;52.752;6.964;2023-03-14T11:10:34;7.10;99.90
39219;DHT22;24934;52.752;6.964;2023-03-14T11:16:02;6.60;99.90
39219;DHT22;24934;52.752;6.964;2023-03-14T11:23:57;6.50;99.90
39219;DHT22;24934;52.752;6.964;2023-03-14T11:29:40;6.50;99.90
39219;DHT22;24934;52.752;6.964;2023-03-14T11:32:14;6.80;99.90
39219;DHT22;24934;52.752;6.964;2023-03-14T11:34:51;7.00;99.90
39219;DHT22;24934;52.752;6.964;2023-03-14T11:37:25;7.20;99.90
39219;DHT22;24934;52.752;6.964;2023-03-14T11:42:31;7.30;99.90
39219;DHT22;24934;52.752;6.964;2023-03-14T11:45:00;7.40;99.90
39219;DHT22;24934;52.752;6.964;2023-03-14T11:47:31;7.40;99.90
39219;DHT22;24934;52.752;6.964;2023-03-14T11:52:48;7.30;99.90
39219;DHT22;24934;52.752;6.964;2023-03-14T11:55:25;7.50;99.90
39219;DHT22;24934;52.752;6.964;2023-03-14T11:57:56;7.50;99.90
39219;DHT22;24934;52.752;6.964;2023-03-14T12:00:24;7.40;99.90
39219;DHT22;24934;52.752;6.964;2023-03-14T12:05:59;7.20;99.90
39219;DHT22;24934;52.752;6.964;2023-03-14T12:14:02;7.60;99.90
39219;DHT22;24934;52.752;6.964;2023-03-14T12:16:38;8.00;99.90
39219;DHT22;24934;52.752;6.964;2023-03-14T12:19:35;8.20;99.90
39219;DHT22;24934;52.752;6.964;2023-03-14T12:24:59;8.70;99.90
39219;DHT22;24934;52.752;6.964;2023-03-14T12:30:29;8.80;99.90
39219;DHT22;24934;52.752;6.964;2023-03-14T12:41:36;9.50;99.90
39219;DHT22;24934;52.752;6.964;2023-03-14T12:43:53;9.60;99.90
39219;DHT22;24934;52.752;6.964;2023-03-14T12:46:21;9.70;99.90
39219;DHT22;24934;52.752;6.964;2023-03-14T12:48:50;9.90;99.90
39219;DHT22;24934;52.752;6.964;2023-03-14T12:51:18;9.90;99.90
39219;DHT22;24934;52.752;6.964;2023-03-14T12:59:36;9.00;99.90
39219;DHT22;24934;52.752;6.964;2023-03-14T13:04:37;9.00;99.90
39219;DHT22;24934;52.752;6.964;2023-03-14T13:10:04;9.50;99.90
39219;DHT22;24934;52.752;6.964;2023-03-14T13:12:46;9.90;99.90
39219;DHT22;24934;52.752;6.964;2023-03-14T13:15:33;10.00;99.90
39219;DHT22;24934;52.752;6.964;2023-03-14T13:18:17;10.00;99.90
39219;DHT22;24934;52.752;6.964;2023-03-14T13:20:59;10.10;99.90
39219;DHT22;24934;52.752;6.964;2023-03-14T13:23:32;9.80;99.90
39219;DHT22;24934;52.752;6.964;2023-03-14T13:26:00;9.70;99.90
39219;DHT22;24934;52.752;6.964;2023-03-14T13:28:27;9.50;99.90
39219;DHT22;24934;52.752;6.964;2023-03-14T13:30:59;9.60;99.90
39219;DHT22;24934;52.752;6.964;2023-03-14T13:33:25;9.90;99.90
39219;DHT22;24934;52.752;6.964;2023-03-14T13:36:02;10.60;99.90
39219;DHT22;24934;52.752;6.964;2023-03-14T13:38:34;11.10;99.90
39219;DHT22;24934;52.752;6.964;2023-03-14T13:41:04;11.10;99.90
39219;DHT22;24934;52.752;6.964;2023-03-14T13:43:40;10.60;99.90
39219;DHT22;24934;52.752;6.964;2023-03-14T13:46:22;9.90;99.90
39219;DHT22;24934;52.752;6.964;2023-03-14T13:48:50;9.30;99.90
39219;DHT22;24934;52.752;6.964;2023-03-14T13:51:18;9.00;99.90
39219;DHT22;24934;52.752;6.964;2023-03-14T13:53:49;8.70;99.90
39219;DHT22;24934;52.752;6.964;2023-03-14T13:56:23;8.40;99.90
39219;DHT22;24934;52.752;6.964;2023-03-14T13:58:50;8.00;99.90
39219;DHT22;24934;52.752;6.964;2023-03-14T14:03:53;8.10;99.90
39219;DHT22;24934;52.752;6.964;2023-03-14T14:06:32;8.00;99.90
39219;DHT22;24934;52.752;6.964;2023-03-14T14:09:02;8.00;99.90
39219;DHT22;24934;52.752;6.964;2023-03-14T14:14:16;8.40;99.90
39219;DHT22;24934;52.752;6.964;2023-03-14T14:16:44;8.60;99.90
39219;DHT22;24934;52.752;6.964;2023-03-14T14:19:12;9.00;99.90
39219;DHT22;24934;52.752;6.964;2023-03-14T14:21:39;9.50;99.90
39219;DHT22;24934;52.752;6.964;2023-03-14T14:24:05;9.70;99.90
39219;DHT22;24934;52.752;6.964;2023-03-14T14:26:31;9.70;99.90
39219;DHT22;24934;52.752;6.964;2023-03-14T14:29:23;9.40;99.90
39219;DHT22;24934;52.752;6.964;2023-03-14T14:32:20;8.80;99.90
39219;DHT22;24934;52.752;6.964;2023-03-14T14:37:49;8.20;99.90
39219;DHT22;24934;52.752;6.964;2023-03-14T14:40:26;8.20;99.90
39219;DHT22;24934;52.752;6.964;2023-03-14T14:42:53;8.50;99.90
39219;DHT22;24934;52.752;6.964;2023-03-14T14:45:21;8.70;99.90
39219;DHT22;24934;52.752;6.964;2023-03-14T14:50:31;9.40;99.90
39219;DHT22;24934;52.752;6.964;2023-03-14T14:53:13;9.80;99.90
39219;DHT22;24934;52.752;6.964;2023-03-14T14:55:44;9.90;99.90
39219;DHT22;24934;52.752;6.964;2023-03-14T14:58:36;9.60;99.90
39219;DHT22;24934;52.752;6.964;2023-03-14T15:01:10;9.30;99.90
39219;DHT22;24934;52.752;6.964;2023-03-14T15:03:37;9.20;99.90
39219;DHT22;24934;52.752;6.964;2023-03-14T15:06:03;9.20;99.90
39219;DHT22;24934;52.752;6.964;2023-03-14T15:08:30;9.10;99.90
39219;DHT22;24934;52.752;6.964;2023-03-14T15:10:56;9.10;99.90
39219;DHT22;24934;52.752;6.964;2023-03-14T15:13:22;9.10;99.90
39219;DHT22;24934;52.752;6.964;2023-03-14T15:15:50;9.00;99.90
39219;DHT22;24934;52.752;6.964;2023-03-14T15:18:22;8.50;99.90
39219;DHT22;24934;52.752;6.964;2023-03-14T15:20:47;8.50;99.90
39219;DHT22;24934;52.752;6.964;2023-03-14T15:23:15;8.40;99.90
39219;DHT22;24934;52.752;6.964;2023-03-14T15:25:42;8.50;99.90
39219;DHT22;24934;52.752;6.964;2023-03-14T15:28:18;8.50;99.90
39219;DHT22;24934;52.752;6.964;2023-03-14T15:30:46;8.50;99.90
39219;DHT22;24934;52.752;6.964;2023-03-14T15:33:13;8.40;99.90
39219;DHT22;24934;52.752;6.964;2023-03-14T15:35:38;8.40;99.90
39219;DHT22;24934;52.752;6.964;2023-03-14T15:38:04;8.30;99.90
39219;DHT22;24934;52.752;6.964;2023-03-14T15:40:30;8.30;99.90
39219;DHT22;24934;52.752;6.964;2023-03-14T15:42:56;8.50;99.90
39219;DHT22;24934;52.752;6.964;2023-03-14T15:45:21;8.40;99.90
39219;DHT22;24934;52.752;6.964;2023-03-14T15:47:47;8.60;99.90
39219;DHT22;24934;52.752;6.964;2023-03-14T15:50:13;8.80;99.90
39219;DHT22;24934;52.752;6.964;2023-03-14T15:52:38;8.70;99.90
39219;DHT22;24934;52.752;6.964;2023-03-14T15:55:04;8.40;99.90
39219;DHT22;24934;52.752;6.964;2023-03-14T15:57:30;8.30;99.90
39219;DHT22;24934;52.752;6.964;2023-03-14T15:59:56;8.20;99.90
39219;DHT22;24934;52.752;6.964;2023-03-14T16:02:21;8.20;99.90
39219;DHT22;24934;52.752;6.964;2023-03-14T16:04:47;8.30;99.90
39219;DHT22;24934;52.752;6.964;2023-03-14T16:07:13;8.30;99.90
39219;DHT22;24934;52.752;6.964;2023-03-14T16:09:38;8.20;99.90
39219;DHT22;24934;52.752;6.964;2023-03-14T16:12:04;8.10;99.90
39219;DHT22;24934;52.752;6.964;2023-03-14T16:14:32;8.00;99.90
39219;DHT22;24934;52.752;6.964;2023-03-14T16:16:57;7.80;99.90
39219;DHT22;24934;52.752;6.964;2023-03-14T16:19:27;7.70;99.90
39219;DHT22;24934;52.752;6.964;2023-03-14T16:21:53;7.60;99.90
39219;DHT22;24934;52.752;6.964;2023-03-14T16:24:19;7.40;99.90
39219;DHT22;24934;52.752;6.964;2023-03-14T16:26:44;7.10;99.90
39219;DHT22;24934;52.752;6.964;2023-03-14T16:29:11;7.00;99.90
39219;DHT22;24934;52.752;6.964;2023-03-14T16:31:36;6.80;99.90
39219;DHT22;24934;52.752;6.964;2023-03-14T16:34:10;6.50;99.90
39219;DHT22;24934;52.752;6.964;2023-03-14T16:36:36;6.30;99.90
39219;DHT22;24934;52.752;6.964;2023-03-14T16:39:02;6.20;99.90
39219;DHT22;24934;52.752;6.964;2023-03-14T16:41:28;6.10;99.90
39219;DHT22;24934;52.752;6.964;2023-03-14T16:43:57;6.00;99.90
39219;DHT22;24934;52.752;6.964;2023-03-14T16:46:22;5.80;99.90
39219;DHT22;24934;52.752;6.964;2023-03-14T16:48:50;5.70;99.90
39219;DHT22;24934;52.752;6.964;2023-03-14T16:51:15;5.60;99.90
39219;DHT22;24934;52.752;6.964;2023-03-14T16:53:42;5.50;99.90
39219;DHT22;24934;52.752;6.964;2023-03-14T16:56:07;5.40;99.90
39219;DHT22;24934;52.752;6.964;2023-03-14T16:58:34;5.30;99.90
39219;DHT22;24934;52.752;6.964;2023-03-14T17:01:03;5.20;99.90
39219;DHT22;24934;52.752;6.964;2023-03-14T17:03:38;5.20;99.90